ADDS METAR Data INFO
IDs: Format: Raw Decoded Include TAF

Data at: 1013 UTC 14 Dec 2017

K3R7 140955Z AUTO 00000KT 7SM CLR 05/05 A2996 RMK AO2 T00490048
K3R7 140935Z AUTO 00000KT 7SM CLR 05/05 A2997 RMK AO2 T00490046
K3R7 140915Z AUTO 00000KT 10SM CLR 06/05 A2997 RMK AO2 T00560054
K3R7 140855Z AUTO 00000KT 10SM CLR 06/05 A2997 RMK AO2 T00560053
K3R7 140835Z AUTO 00000KT 10SM CLR 06/05 A2997 RMK AO2 T00570052
K3R7 140815Z AUTO 00000KT 10SM CLR 07/06 A2998 RMK AO2 T00650059
K3R7 140755Z AUTO 00000KT 10SM CLR 06/06 A2997 RMK AO2 T00620059
K3R7 140735Z AUTO 00000KT 10SM CLR 07/06 A2997 RMK AO2 T00660060
K3R7 140715Z AUTO 00000KT 10SM CLR 07/06 A2997 RMK AO2 T00700062
K3R7 140655Z AUTO 00000KT 10SM CLR 07/06 A2997 RMK AO2 T00670061
K3R7 140635Z AUTO 00000KT 10SM CLR 07/06 A2998 RMK AO2 T00690060
K3R7 140615Z AUTO 00000KT 10SM CLR 08/06 A2997 RMK AO2 T00750061
K3R7 140555Z AUTO 00000KT 10SM CLR 08/07 A2997 RMK AO2 T00790065 10110 20079 401500000
K3R7 140535Z AUTO 00000KT 10SM CLR 08/07 A2998 RMK AO2 T00800066
K3R7 140515Z AUTO 19003KT 10SM CLR 09/07 A2999 RMK AO2 T00850067
K3R7 140455Z AUTO 19003KT 10SM CLR 09/07 A2999 RMK AO2 T00860065
K3R7 140435Z AUTO 20003KT 10SM CLR 09/07 A3000 RMK AO2 T00860065
K3R7 140415Z AUTO 19003KT 10SM CLR 09/07 A3000 RMK AO2 T00920065
K3R7 140355Z AUTO 22003KT 10SM CLR 09/06 A3001 RMK AO2 T00920064
K3R7 140335Z AUTO 22003KT 10SM CLR 10/07 A3000 RMK AO2 T00950065
K3R7 140315Z AUTO 22004KT 10SM CLR 10/07 A3001 RMK AO2 T00950065
K3R7 140255Z AUTO 21005KT 10SM CLR 10/07 A3000 RMK AO2 T00970065
K3R7 140240Z AUTO 22004KT 10SM CLR 10/07 A3001 RMK AO2 T00960065
K3R7 140215Z AUTO 21003KT 10SM CLR 09/06 A3002 RMK AO2 T00910063
K3R7 140155Z AUTO 21004KT 10SM CLR 10/06 A3002 RMK AO2 T00970061
K3R7 140135Z AUTO 20003KT 10SM CLR 10/06 A3002 RMK AO2 T00960059
K3R7 140115Z AUTO 20003KT 10SM CLR 10/06 A3003 RMK AO2 T01000057
K3R7 140055Z AUTO 22003KT 10SM CLR 10/06 A3003 RMK AO2 T01030058
K3R7 140035Z AUTO 22003KT 10SM CLR 11/06 A3004 RMK AO2 T01070060
K3R7 140015Z AUTO 00000KT 10SM CLR 11/06 A3003 RMK AO2 T01070060
K3R7 132355Z AUTO 23003KT 10SM CLR 11/06 A3004 RMK AO2 T01110057 10150 20111
K3R7 132335Z AUTO 23004KT 10SM CLR 12/06 A3004 RMK AO2 T01150055
K3R7 132315Z AUTO 23003KT 10SM CLR 12/05 A3004 RMK AO2 T01200052
K3R7 132255Z AUTO 23003KT 10SM CLR 13/05 A3003 RMK AO2 T01250050
K3R7 132235Z AUTO 24004KT 10SM CLR 13/04 A3003 RMK AO2 T01310044
K3R7 132215Z AUTO 23004KT 10SM CLR 14/04 A3003 RMK AO2 T01350041
K3R7 132155Z AUTO 22004KT 10SM CLR 14/03 A3004 RMK AO2 T01360032
K3R7 132135Z AUTO 21004KT 10SM CLR 14/03 A3005 RMK AO2 T01400030
K3R7 132115Z AUTO 22009KT 10SM CLR 14/02 A3005 RMK AO2 T01400023
K3R7 132055Z AUTO 21007KT 10SM CLR 15/02 A3005 RMK AO2 T01450018
K3R7 132035Z AUTO 22008KT 10SM CLR 15/01 A3006 RMK AO2 T01450006
K3R7 132015Z AUTO 21006KT 10SM CLR 15/00 A3008 RMK AO2 T01500004
K3R7 131955Z AUTO 22008G14KT 10SM CLR 15/00 A3008 RMK AO2 T01490002
K3R7 131935Z AUTO 24007KT 10SM CLR 15/00 A3009 RMK AO2 T01481002
K3R7 131915Z AUTO 19007KT 10SM CLR 15/M01 A3010 RMK AO2 T01451006
K3R7 131855Z AUTO 22009KT 10SM CLR 15/M01 A3011 RMK AO2 T01451010
K3R7 131835Z AUTO 20007KT 10SM CLR 14/00 A3013 RMK AO2 T01431005
K3R7 131815Z AUTO 22008KT 10SM CLR 14/M02 A3014 RMK AO2 T01361023
K3R7 131755Z AUTO 19006KT 10SM CLR 14/00 A3016 RMK AO2 T01360001 10136 20000
K3R7 131735Z AUTO 19007KT 10SM CLR 13/00 A3017 RMK AO2 T01271005
K3R7 131715Z AUTO 21007KT 10SM CLR 13/M01 A3018 RMK AO2 T01281013
K3R7 131655Z AUTO 19005KT 10SM CLR 12/M01 A3018 RMK AO2 T01211011
K3R7 131635Z AUTO 18005KT 10SM CLR 12/00 A3019 RMK AO2 T01151002
K3R7 131615Z AUTO 19005KT 10SM CLR 10/00 A3019 RMK AO2 T01041005
K3R7 131555Z AUTO 18004KT 10SM CLR 10/01 A3019 RMK AO2 T00980008
K3R7 131535Z AUTO 00000KT 10SM CLR 09/01 A3019 RMK AO2 T00880013
K3R7 131515Z AUTO 00000KT 10SM CLR 07/02 A3019 RMK AO2 T00710018
K3R7 131455Z AUTO 00000KT 10SM CLR 06/02 A3019 RMK AO2 T00580021
K3R7 131435Z AUTO 00000KT 10SM CLR 05/01 A3019 RMK AO2 T00480014
K3R7 131415Z AUTO 00000KT 10SM CLR 03/02 A3019 RMK AO2 T00340018
K3R7 131355Z AUTO 00000KT 10SM CLR 02/01 A3018 RMK AO2 T00180010
K3R7 131335Z AUTO 00000KT 10SM CLR 01/00 A3018 RMK AO2 T00061001
K3R7 131315Z AUTO 00000KT 10SM CLR 01/00 A3017 RMK AO2 T00050000
K3R7 131255Z AUTO 00000KT 10SM CLR 01/00 A3018 RMK AO2 T00050000
K3R7 131235Z AUTO 00000KT 10SM CLR 01/00 A3017 RMK AO2 T00070000
K3R7 131215Z AUTO 00000KT 10SM CLR 00/00 A3017 RMK AO2 T00040000
K3R7 131155Z AUTO 00000KT 10SM CLR 00/00 A3017 RMK AO2 T00020000 10056 20002
K3R7 131135Z AUTO 00000KT 10SM CLR 00/00 A3017 RMK AO2 T00040000
K3R7 131115Z AUTO 00000KT 10SM CLR 01/00 A3017 RMK AO2 T00060000
K3R7 131055Z AUTO 00000KT 10SM CLR 01/00 A3017 RMK AO2 T00090001
K3R7 131035Z AUTO 00000KT 10SM CLR 01/01 A3017 RMK AO2 T00130005
K3R7 131015Z AUTO 00000KT 10SM CLR 02/01 A3017 RMK AO2 T00160006
K3R7 130955Z AUTO 00000KT 10SM CLR 01/00 A3018 RMK AO2 T00071002
K3R7 130935Z AUTO 00000KT 10SM CLR 02/01 A3019 RMK AO2 T00180012
K3R7 130915Z AUTO 00000KT 10SM CLR 01/00 A3018 RMK AO2 T00130003
K3R7 130855Z AUTO 00000KT 10SM CLR 02/01 A3018 RMK AO2 T00220006
K3R7 130835Z AUTO 00000KT 10SM CLR 04/02 A3019 RMK AO2 T00360017
K3R7 130815Z AUTO 00000KT 10SM CLR 04/01 A3018 RMK AO2 T00350014
K3R7 130755Z AUTO 32003KT 10SM CLR 02/01 A3019 RMK AO2 T00210011
K3R7 130735Z AUTO 00000KT 10SM CLR 03/01 A3019 RMK AO2 T00260011
K3R7 130715Z AUTO 00000KT 10SM CLR 03/02 A3018 RMK AO2 T00320016
K3R7 130655Z AUTO 00000KT 10SM CLR 04/02 A3019 RMK AO2 T00420020
K3R7 130635Z AUTO 00000KT 10SM CLR 04/02 A3020 RMK AO2 T00410016
K3R7 130615Z AUTO 00000KT 10SM CLR 05/02 A3020 RMK AO2 T00490022
K3R7 130555Z AUTO 29005KT 10SM CLR 05/02 A3020 RMK AO2 T00540023 10110 20049 401620049
K3R7 130535Z AUTO 31004KT 10SM CLR 06/03 A3021 RMK AO2 T00620027
K3R7 130515Z AUTO 34004KT 10SM CLR 06/03 A3021 RMK AO2 T00640030
K3R7 130455Z AUTO 00000KT 10SM CLR 06/03 A3022 RMK AO2 T00550027
K3R7 130440Z AUTO 00000KT 10SM CLR 06/03 A3022 RMK AO2 T00570030
K3R7 130415Z AUTO 36003KT 10SM CLR 07/02 A3022 RMK AO2 T00710021
K3R7 130355Z AUTO 36004KT 10SM CLR 08/02 A3022 RMK AO2 T00760020
K3R7 130335Z AUTO 02004KT 10SM CLR 07/02 A3021 RMK AO2 T00720015
K3R7 130315Z AUTO 01004KT 10SM CLR 08/02 A3022 RMK AO2 T00770020
K3R7 130255Z AUTO 00000KT 10SM CLR 08/03 A3022 RMK AO2 T00810028
K3R7 130235Z AUTO 30005KT 10SM CLR 08/02 A3022 RMK AO2 T00780022
K3R7 130215Z AUTO 29007KT 10SM CLR 08/02 A3022 RMK AO2 T00810024
K3R7 130155Z AUTO 29007KT 10SM CLR 09/03 A3022 RMK AO2 T00850028
K3R7 130120Z AUTO 30005KT 10SM CLR 09/03 A3021 RMK AO2 T00850031
K3R7 130055Z AUTO 28003KT 10SM CLR 08/04 A3022 RMK AO2 T00840036
K3R7 130035Z AUTO 00000KT 10SM CLR 10/03 A3021 RMK AO2 T00990031
K3R7 130015Z AUTO 00000KT 10SM CLR 10/04 A3020 RMK AO2 T01000035
K3R7 122355Z AUTO 00000KT 10SM CLR 11/04 A3020 RMK AO2 T01110036 10162 20111
K3R7 122335Z AUTO 34003KT 10SM CLR 12/04 A3019 RMK AO2 T01200037
K3R7 122315Z AUTO 33004KT 10SM SCT038 13/04 A3019 RMK AO2 T01250035
K3R7 122255Z AUTO 34005KT 10SM SCT038 14/03 A3019 RMK AO2 T01350032
K3R7 122235Z AUTO 33005KT 10SM CLR 14/03 A3018 RMK AO2 T01440033
K3R7 122215Z AUTO 35005KT 10SM CLR 15/02 A3018 RMK AO2 T01520021